createdAt,value
2023-05-16T00:00:35.363Z,93084.34
2023-05-16T00:03:05.892Z,93094.81
2023-05-16T00:05:33.328Z,93084.62
2023-05-16T00:08:00.658Z,93079.06
2023-05-16T00:10:28.503Z,93076.66
2023-05-16T00:12:56.557Z,93071.13
2023-05-16T00:15:25.220Z,93078.75
2023-05-16T00:17:52.830Z,93073.28
2023-05-16T00:20:23.688Z,93070.06
2023-05-16T00:22:51.445Z,93063.22
2023-05-16T00:25:19.105Z,93074.00
2023-05-16T00:27:46.866Z,93068.47
2023-05-16T00:30:15.413Z,93067.94
2023-05-16T00:32:44.876Z,93061.06
2023-05-16T00:35:12.709Z,93064.22
2023-05-16T00:37:40.373Z,93054.31
2023-05-16T00:40:08.668Z,93056.91
2023-05-16T00:42:36.531Z,93062.91
2023-05-16T00:45:05.085Z,93062.09
2023-05-16T00:47:32.986Z,93063.78
2023-05-16T00:50:00.624Z,93051.16
2023-05-16T00:52:28.841Z,93038.56
2023-05-16T00:54:56.581Z,93034.37
2023-05-16T00:57:24.016Z,93039.31
2023-05-16T00:59:51.837Z,93038.00
2023-05-16T01:02:20.427Z,93037.50
2023-05-16T01:04:48.635Z,93032.25
2023-05-16T01:07:17.244Z,93037.25
2023-05-16T01:09:44.887Z,93035.94
2023-05-16T01:12:24.167Z,93032.75
2023-05-16T01:15:00.032Z,93032.75
2023-05-16T01:17:29.218Z,93031.75
2023-05-16T01:20:18.866Z,93037.53
2023-05-16T01:22:48.879Z,93033.06
2023-05-16T01:25:38.790Z,93035.66
2023-05-16T01:28:07.764Z,93041.22
2023-05-16T01:30:37.916Z,93024.94
2023-05-16T01:33:05.340Z,93033.41
2023-05-16T01:35:33.516Z,93028.63
2023-05-16T01:38:13.093Z,93012.59
2023-05-16T01:40:58.706Z,93017.84
2023-05-16T01:44:03.462Z,93006.56
2023-05-16T01:46:37.553Z,93012.78
2023-05-16T01:49:19.048Z,93001.75
2023-05-16T01:52:03.882Z,92999.66
2023-05-16T01:54:33.496Z,92994.94
2023-05-16T01:57:04.833Z,93001.72
2023-05-16T01:59:33.643Z,92992.78
2023-05-16T02:02:01.144Z,92990.97
2023-05-16T02:04:28.891Z,92990.16
2023-05-16T02:06:57.259Z,92990.16
2023-05-16T02:09:26.206Z,92984.31
2023-05-16T02:11:54.092Z,92988.00
2023-05-16T02:14:21.506Z,92974.09
2023-05-16T02:16:49.315Z,92977.25
2023-05-16T02:19:17.568Z,92973.28
2023-05-16T02:21:45.126Z,92981.69
2023-05-16T02:24:13.062Z,92970.94
2023-05-16T02:26:40.544Z,92972.50
2023-05-16T02:29:08.007Z,92980.38
2023-05-16T02:31:36.028Z,92979.88
2023-05-16T02:34:03.767Z,92975.13
2023-05-16T02:36:32.174Z,92971.47
2023-05-16T02:39:00.145Z,92981.41
2023-05-16T02:41:27.676Z,92980.09
2023-05-16T02:43:55.058Z,92972.25
2023-05-16T02:46:23.804Z,92979.09
2023-05-16T02:48:52.099Z,92976.16
2023-05-16T02:51:21.877Z,92976.47
2023-05-16T02:53:49.704Z,92975.41
2023-05-16T02:56:17.261Z,92970.44
2023-05-16T02:58:48.597Z,92969.62
2023-05-16T03:01:17.158Z,92966.25
2023-05-16T03:03:44.869Z,92973.63
2023-05-16T03:06:12.834Z,92962.78
2023-05-16T03:08:40.945Z,92968.56
2023-05-16T03:11:08.503Z,92967.78
2023-05-16T03:13:35.815Z,92971.72
2023-05-16T03:16:05.958Z,92968.00
2023-05-16T03:18:33.452Z,92977.94
2023-05-16T03:21:01.667Z,92974.75
2023-05-16T03:23:29.398Z,92968.44
2023-05-16T03:25:57.703Z,92971.63
2023-05-16T03:28:25.645Z,92970.06
2023-05-16T03:30:55.456Z,92972.97
2023-05-16T03:33:23.865Z,92975.59
2023-05-16T03:35:52.310Z,92969.34
2023-05-16T03:38:19.937Z,92965.09
2023-05-16T03:40:48.628Z,92974.06
2023-05-16T03:43:16.154Z,92973.84
2023-05-16T03:45:44.477Z,92968.56
2023-05-16T03:48:11.886Z,92966.97
2023-05-16T03:50:41.194Z,92963.56
2023-05-16T03:53:10.312Z,92960.69
2023-05-16T03:55:38.081Z,92962.50
2023-05-16T03:58:05.450Z,92961.47
2023-05-16T04:00:34.712Z,92952.28
2023-05-16T04:03:02.705Z,92955.94
2023-05-16T04:05:30.743Z,92964.09
2023-05-16T04:07:58.302Z,92950.75
2023-05-16T04:10:25.951Z,92960.97
2023-05-16T04:12:53.314Z,92964.94
2023-05-16T04:15:21.182Z,92959.69
2023-05-16T04:17:49.105Z,92970.94
2023-05-16T04:20:17.135Z,92978.22
2023-05-16T04:22:44.658Z,92983.75
2023-05-16T04:25:12.688Z,92980.66
2023-05-16T04:27:40.146Z,92974.84
2023-05-16T04:30:08.115Z,92978.78
2023-05-16T04:32:36.917Z,92978.31
2023-05-16T04:35:04.378Z,92981.16
2023-05-16T04:37:32.856Z,92973.34
2023-05-16T04:40:00.651Z,92973.63
2023-05-16T04:42:28.110Z,92974.97
2023-05-16T04:44:56.642Z,92974.88
2023-05-16T04:47:24.506Z,92980.69
2023-05-16T04:49:52.766Z,92985.38
2023-05-16T04:52:20.938Z,92980.94
2023-05-16T04:54:51.317Z,92981.72
2023-05-16T04:57:18.934Z,92977.59
2023-05-16T04:59:46.368Z,92976.53
2023-05-16T05:02:14.054Z,92975.47
2023-05-16T05:04:41.850Z,92973.41
2023-05-16T05:07:09.255Z,92975.72
2023-05-16T05:09:36.962Z,92965.22
2023-05-16T05:12:04.720Z,92979.94
2023-05-16T05:14:32.180Z,92974.41
2023-05-16T05:16:59.831Z,92973.94
2023-05-16T05:19:27.271Z,92977.59
2023-05-16T05:21:55.771Z,92980.25
2023-05-16T05:24:23.428Z,92984.44
2023-05-16T05:26:50.935Z,92976.25
2023-05-16T05:29:18.392Z,92982.84
2023-05-16T05:31:46.087Z,92974.16
2023-05-16T05:34:13.604Z,92976.84
2023-05-16T05:36:41.194Z,92967.69
2023-05-16T05:39:08.880Z,92963.47
2023-05-16T05:41:36.707Z,92962.16
2023-05-16T05:44:04.234Z,92966.34
2023-05-16T05:46:33.893Z,92964.50
2023-05-16T05:49:02.380Z,92971.34
2023-05-16T05:51:30.053Z,92964.00
2023-05-16T05:53:58.179Z,92947.72
2023-05-16T05:56:25.594Z,92952.41
2023-05-16T05:58:53.037Z,92948.81
2023-05-16T06:01:24.680Z,92952.47
2023-05-16T06:03:52.554Z,92948.75
2023-05-16T06:06:20.166Z,92952.47
2023-05-16T06:08:47.457Z,92949.84
2023-05-16T06:11:16.277Z,92945.34
2023-05-16T06:13:43.581Z,92958.75
2023-05-16T06:16:11.903Z,92963.19
2023-05-16T06:18:40.311Z,92966.63
2023-05-16T06:21:07.963Z,92964.00
2023-05-16T06:23:36.220Z,92964.50
2023-05-16T06:26:04.655Z,92958.50
2023-05-16T06:28:32.161Z,92953.78
2023-05-16T06:30:59.622Z,92954.06
2023-05-16T06:33:27.335Z,92954.34
2023-05-16T06:35:54.819Z,92964.59
2023-05-16T06:38:22.304Z,92967.75
2023-05-16T06:40:50.228Z,92954.62
2023-05-16T06:43:18.104Z,92961.97
2023-05-16T06:45:46.918Z,92944.38
2023-05-16T06:48:15.831Z,92941.75
2023-05-16T06:50:43.913Z,92956.97
2023-05-16T06:53:12.259Z,92963.03
2023-05-16T06:55:40.001Z,92947.78
2023-05-16T06:58:07.370Z,92953.31
2023-05-16T07:00:34.825Z,92947.56
2023-05-16T07:03:04.158Z,92935.75
2023-05-16T07:05:31.866Z,92946.75
2023-05-16T07:07:59.273Z,92953.59
2023-05-16T07:10:27.583Z,92957.28
2023-05-16T07:12:56.152Z,92949.38
2023-05-16T07:15:23.658Z,92937.06
2023-05-16T07:17:51.462Z,92937.59
2023-05-16T07:20:19.052Z,92930.25
2023-05-16T07:22:47.208Z,92927.34
2023-05-16T07:25:16.416Z,92916.28
2023-05-16T07:27:45.318Z,92926.28
2023-05-16T07:30:13.583Z,92907.63
2023-05-16T07:32:41.942Z,92922.59
2023-05-16T07:35:10.033Z,92930.00
2023-05-16T07:37:37.391Z,92933.16
2023-05-16T07:40:05.818Z,92943.37
2023-05-16T07:42:33.323Z,92929.19
2023-05-16T07:45:01.060Z,92927.31
2023-05-16T07:47:29.438Z,92920.22
2023-05-16T07:49:57.515Z,92927.28
2023-05-16T07:52:27.867Z,92941.50
2023-05-16T07:54:56.788Z,92940.44
2023-05-16T07:57:25.299Z,92937.25
2023-05-16T07:59:53.618Z,92931.72
2023-05-16T08:02:31.384Z,92918.31
2023-05-16T08:04:59.907Z,92915.38
2023-05-16T08:07:27.489Z,92889.81
2023-05-16T08:09:56.097Z,92896.84
2023-05-16T08:12:24.875Z,92909.94
2023-05-16T08:14:52.607Z,92901.75
2023-05-16T08:17:21.198Z,92900.41
2023-05-16T08:19:50.277Z,92909.38
2023-05-16T08:22:18.471Z,92912.50
2023-05-16T08:24:46.480Z,92925.12
2023-05-16T08:27:14.149Z,92921.44
2023-05-16T08:29:50.693Z,92926.13
2023-05-16T08:32:18.491Z,92916.91
2023-05-16T08:34:46.879Z,92911.88
2023-05-16T08:37:15.955Z,92919.34
2023-05-16T08:39:45.825Z,92919.28
2023-05-16T08:42:19.560Z,92914.00
2023-05-16T08:44:47.624Z,92924.94
2023-05-16T08:47:25.165Z,92914.06
2023-05-16T08:49:57.908Z,92911.16
2023-05-16T08:52:31.493Z,92905.63
2023-05-16T08:55:11.443Z,92900.41
2023-05-16T08:57:41.724Z,92909.91
2023-05-16T09:00:13.544Z,92907.16
2023-05-16T09:02:47.456Z,92904.41
2023-05-16T09:05:19.725Z,92902.47
2023-05-16T09:07:52.061Z,92911.78
2023-05-16T09:10:20.217Z,92913.47
2023-05-16T09:12:48.476Z,92918.28
2023-05-16T09:15:18.887Z,92901.28
2023-05-16T09:17:47.481Z,92887.41
2023-05-16T09:20:25.177Z,92890.66
2023-05-16T09:22:58.756Z,92897.94
2023-05-16T09:25:31.092Z,92902.91
2023-05-16T09:28:03.676Z,92891.56
2023-05-16T09:30:37.737Z,92891.19
2023-05-16T09:33:08.392Z,92908.44
2023-05-16T09:35:45.078Z,92920.91
2023-05-16T09:38:16.856Z,92897.06
2023-05-16T09:40:45.576Z,92899.06
2023-05-16T09:43:17.394Z,92910.53
2023-05-16T09:45:49.424Z,92904.09
2023-05-16T09:48:18.371Z,92902.47
2023-05-16T09:50:54.598Z,92895.00
2023-05-16T09:53:27.911Z,92898.37
2023-05-16T09:56:13.012Z,92913.97
2023-05-16T09:58:47.823Z,92896.97
2023-05-16T10:01:15.713Z,92915.59
2023-05-16T10:03:43.997Z,92903.72
2023-05-16T10:06:12.830Z,92908.28
2023-05-16T10:08:43.267Z,92899.41
2023-05-16T10:11:12.033Z,92911.59
2023-05-16T10:13:40.221Z,92916.81
2023-05-16T10:16:11.495Z,92909.28
2023-05-16T10:18:40.963Z,92898.78
2023-05-16T10:21:12.131Z,92892.06
2023-05-16T10:23:43.452Z,92887.00
2023-05-16T10:26:14.371Z,92886.47
2023-05-16T10:28:42.703Z,92875.69
2023-05-16T10:31:11.864Z,92874.56
2023-05-16T10:33:40.155Z,92861.09
2023-05-16T10:36:12.400Z,92869.75
2023-05-16T10:38:41.786Z,92861.22
2023-05-16T10:41:10.553Z,92844.06
2023-05-16T10:43:37.998Z,92842.78
2023-05-16T10:46:09.976Z,92862.19
2023-05-16T10:48:39.858Z,92856.81
2023-05-16T10:51:22.929Z,92856.22
2023-05-16T10:53:55.017Z,92851.22
2023-05-16T10:56:27.353Z,92845.81
2023-05-16T10:58:56.326Z,92837.84
2023-05-16T11:01:30.358Z,92836.16
2023-05-16T11:04:00.724Z,92852.00
2023-05-16T11:06:32.775Z,92853.84
2023-05-16T11:09:06.878Z,92848.22
2023-05-16T11:11:47.994Z,92847.97
2023-05-16T11:14:26.149Z,92841.81
2023-05-16T11:17:01.707Z,92845.38
2023-05-16T11:19:39.530Z,92850.38
2023-05-16T11:22:15.316Z,92840.38
2023-05-16T11:24:54.990Z,92838.72
2023-05-16T11:27:33.008Z,92851.28
2023-05-16T11:30:22.107Z,92838.91
2023-05-16T11:32:50.924Z,92831.47
2023-05-16T11:35:20.622Z,92827.25
2023-05-16T11:37:52.109Z,92852.44
2023-05-16T11:40:22.670Z,92847.84
2023-05-16T11:42:50.193Z,92854.41
2023-05-16T11:45:20.038Z,92841.06
2023-05-16T11:47:49.277Z,92848.53
2023-05-16T11:50:17.947Z,92846.28
2023-05-16T11:52:47.906Z,92840.78
2023-05-16T11:55:28.320Z,92830.56
2023-05-16T11:58:08.231Z,92842.53
2023-05-16T12:00:36.711Z,92815.94
2023-05-16T12:03:06.146Z,92825.44
2023-05-16T12:05:35.363Z,92825.81
2023-05-16T12:08:05.162Z,92827.34
2023-05-16T12:10:35.924Z,92824.25
2023-05-16T12:13:04.347Z,92818.25
2023-05-16T12:15:32.272Z,92827.97
2023-05-16T12:17:59.941Z,92807.38
2023-05-16T12:20:27.813Z,92792.72
2023-05-16T12:22:58.156Z,92796.34
2023-05-16T12:25:31.153Z,92797.00
2023-05-16T12:28:00.708Z,92796.47
2023-05-16T12:30:30.076Z,92795.84
2023-05-16T12:33:05.843Z,92781.19
2023-05-16T12:35:39.080Z,92777.44
2023-05-16T12:38:11.856Z,92779.72
2023-05-16T12:40:41.580Z,92787.75
2023-05-16T12:43:20.018Z,92774.97
2023-05-16T12:45:52.990Z,92771.75
2023-05-16T12:48:21.882Z,92779.84
2023-05-16T12:50:50.699Z,92785.69
2023-05-16T12:53:19.134Z,92777.13
2023-05-16T12:55:47.014Z,92792.38
2023-05-16T12:58:14.741Z,92791.66
2023-05-16T13:00:42.121Z,92789.00
2023-05-16T13:03:09.749Z,92777.16
2023-05-16T13:05:37.518Z,92785.00
2023-05-16T13:08:05.672Z,92786.69
2023-05-16T13:10:33.061Z,92778.03
2023-05-16T13:13:00.881Z,92782.47
2023-05-16T13:15:28.758Z,92795.66
2023-05-16T13:17:56.576Z,92790.94
2023-05-16T13:20:24.921Z,92797.25
2023-05-16T13:22:52.398Z,92791.37
2023-05-16T13:25:19.864Z,92796.25
2023-05-16T13:27:49.546Z,92795.47
2023-05-16T13:30:19.122Z,92783.50
2023-05-16T13:32:46.543Z,92781.56
2023-05-16T13:35:14.368Z,92779.69
2023-05-16T13:37:42.057Z,92771.75
2023-05-16T13:40:10.699Z,92784.41
2023-05-16T13:42:38.988Z,92782.53
2023-05-16T13:45:07.363Z,92776.06
2023-05-16T13:47:34.851Z,92794.69
2023-05-16T13:50:06.371Z,92799.06
2023-05-16T13:52:35.031Z,92799.16
2023-05-16T13:55:04.869Z,92785.16
2023-05-16T13:57:33.303Z,92816.84
2023-05-16T14:02:40.876Z,92800.41
2023-05-16T14:05:09.772Z,92816.62
2023-05-16T14:07:37.324Z,92820.50
2023-05-16T14:10:07.118Z,92831.34
2023-05-16T14:12:34.949Z,92822.44
2023-05-16T14:15:03.433Z,92831.09
2023-05-16T14:17:31.583Z,92837.37
2023-05-16T14:19:59.287Z,92831.59
2023-05-16T14:22:26.939Z,92833.75
2023-05-16T14:24:54.330Z,92831.31
2023-05-16T14:27:22.074Z,92834.34
2023-05-16T14:29:49.427Z,92843.69
2023-05-16T14:32:17.062Z,92843.37
2023-05-16T14:34:44.982Z,92846.53
2023-05-16T14:37:13.438Z,92856.16
2023-05-16T14:39:40.956Z,92853.97
2023-05-16T14:42:08.927Z,92864.75
2023-05-16T14:44:36.582Z,92865.63
2023-05-16T14:47:04.650Z,92871.34
2023-05-16T14:49:32.567Z,92871.25
2023-05-16T14:51:59.963Z,92867.06
2023-05-16T14:54:27.455Z,92868.84
2023-05-16T14:56:55.899Z,92863.97
2023-05-16T14:59:26.274Z,92862.47
2023-05-16T15:01:53.749Z,92853.38
2023-05-16T15:04:21.601Z,92849.25
2023-05-16T15:06:48.980Z,92845.91
2023-05-16T15:09:17.771Z,92840.69
2023-05-16T15:11:46.193Z,92844.09
2023-05-16T15:14:13.631Z,92853.72
2023-05-16T15:16:41.185Z,92860.41
2023-05-16T15:19:09.021Z,92856.41
2023-05-16T15:21:36.471Z,92849.56
2023-05-16T15:24:04.088Z,92853.28
2023-05-16T15:26:32.897Z,92857.03
2023-05-16T15:29:00.272Z,92854.91
2023-05-16T15:31:27.818Z,92843.72
2023-05-16T15:33:56.112Z,92838.50
2023-05-16T15:36:23.555Z,92850.56
2023-05-16T15:38:51.354Z,92842.22
2023-05-16T15:41:32.116Z,92841.91
2023-05-16T15:44:06.462Z,92850.72
2023-05-16T15:46:34.376Z,92848.75
2023-05-16T15:49:01.909Z,92845.91
2023-05-16T15:51:29.218Z,92843.78
2023-05-16T15:53:57.087Z,92843.16
2023-05-16T15:56:24.447Z,92849.06
2023-05-16T15:58:51.903Z,92848.66
2023-05-16T16:01:19.748Z,92851.22
2023-05-16T16:03:47.930Z,92859.16
2023-05-16T16:06:15.349Z,92870.00
2023-05-16T16:08:42.751Z,92868.66
2023-05-16T16:11:10.774Z,92869.44
2023-05-16T16:13:38.570Z,92870.00
2023-05-16T16:16:09.720Z,92879.28
2023-05-16T16:18:37.487Z,92878.84
2023-05-16T16:21:04.958Z,92881.56
2023-05-16T16:23:32.342Z,92879.69
2023-05-16T16:26:00.809Z,92874.84
2023-05-16T16:28:28.181Z,92880.72
2023-05-16T16:30:55.589Z,92866.94
2023-05-16T16:33:23.390Z,92858.00
2023-05-16T16:35:52.247Z,92853.16
2023-05-16T16:38:19.670Z,92851.44
2023-05-16T16:40:47.540Z,92851.75
2023-05-16T16:43:15.575Z,92849.44
2023-05-16T16:45:42.905Z,92842.94
2023-05-16T16:48:11.797Z,92843.22
2023-05-16T16:50:39.335Z,92835.44
2023-05-16T16:53:06.751Z,92836.44
2023-05-16T16:55:34.596Z,92842.47
2023-05-16T16:58:02.315Z,92834.97
2023-05-16T17:00:29.902Z,92829.34
2023-05-16T17:02:58.915Z,92829.28
2023-05-16T17:05:26.750Z,92824.00
2023-05-16T17:07:54.373Z,92829.97
2023-05-16T17:10:22.124Z,92819.22
2023-05-16T17:12:50.096Z,92809.91
2023-05-16T17:15:17.898Z,92801.78
2023-05-16T17:17:46.219Z,92788.69
2023-05-16T17:20:13.684Z,92788.97
2023-05-16T17:22:41.180Z,92771.22
2023-05-16T17:25:10.009Z,92757.12
2023-05-16T17:27:37.453Z,92748.81
2023-05-16T17:30:05.256Z,92751.41
2023-05-16T17:32:33.108Z,92772.97
2023-05-16T17:35:04.034Z,92775.53
2023-05-16T17:37:33.328Z,92758.94
2023-05-16T17:40:01.151Z,92765.06
2023-05-16T17:42:28.550Z,92776.66
2023-05-16T17:44:55.854Z,92791.56
2023-05-16T17:47:24.667Z,92775.22
2023-05-16T17:49:52.196Z,92767.84
2023-05-16T17:52:20.341Z,92780.53
2023-05-16T17:54:48.295Z,92784.53
2023-05-16T17:57:15.677Z,92793.50
2023-05-16T17:59:43.165Z,92803.94
2023-05-16T18:02:15.314Z,92801.31
2023-05-16T18:04:43.328Z,92800.16
2023-05-16T18:07:10.878Z,92798.06
2023-05-16T18:09:38.748Z,92795.81
2023-05-16T18:12:07.265Z,92791.37
2023-05-16T18:14:35.553Z,92776.97
2023-05-16T18:17:03.060Z,92760.37
2023-05-16T18:19:31.249Z,92761.75
2023-05-16T18:22:00.208Z,92776.19
2023-05-16T18:24:27.709Z,92761.16
2023-05-16T18:26:55.396Z,92759.63
2023-05-16T18:29:23.745Z,92758.03
2023-05-16T18:31:52.590Z,92745.09
2023-05-16T18:34:22.427Z,92749.94
2023-05-16T18:36:50.878Z,92736.25
2023-05-16T18:39:20.898Z,92741.47
2023-05-16T18:41:48.872Z,92746.28
2023-05-16T18:44:20.593Z,92736.78
2023-05-16T18:46:48.066Z,92731.00
2023-05-16T18:49:16.197Z,92729.69
2023-05-16T18:51:44.476Z,92711.78
2023-05-16T18:54:11.998Z,92698.09
2023-05-16T18:56:39.874Z,92726.19
2023-05-16T18:59:07.324Z,92742.03
2023-05-16T19:01:34.775Z,92738.69
2023-05-16T19:04:02.622Z,92735.19
2023-05-16T19:06:30.267Z,92737.87
2023-05-16T19:08:57.564Z,92751.31
2023-05-16T19:11:25.333Z,92726.81
2023-05-16T19:13:52.779Z,92735.03
2023-05-16T19:16:20.270Z,92729.13
2023-05-16T19:18:50.491Z,92734.31
2023-05-16T19:21:18.043Z,92726.12
2023-05-16T19:23:46.350Z,92728.66
2023-05-16T19:26:14.091Z,92725.19
2023-05-16T19:28:42.780Z,92730.53
2023-05-16T19:31:11.132Z,92723.19
2023-05-16T19:33:39.073Z,92724.69
2023-05-16T19:36:06.996Z,92734.81
2023-05-16T19:38:34.438Z,92740.38
2023-05-16T19:41:02.167Z,92723.28
2023-05-16T19:43:30.042Z,92701.88
2023-05-16T19:45:57.540Z,92719.56
2023-05-16T19:48:25.646Z,92714.59
2023-05-16T19:50:53.528Z,92732.19
2023-05-16T19:53:20.956Z,92739.63
2023-05-16T19:55:49.629Z,92722.16
2023-05-16T19:58:17.075Z,92726.47
2023-05-16T20:00:44.513Z,92718.75
2023-05-16T20:03:12.249Z,92724.28
2023-05-16T20:05:39.783Z,92726.41
2023-05-16T20:08:07.286Z,92731.84
2023-05-16T20:10:35.517Z,92749.09
2023-05-16T20:13:02.933Z,92742.00
2023-05-16T20:15:30.794Z,92741.62
2023-05-16T20:17:58.676Z,92738.37
2023-05-16T20:20:27.062Z,92742.12
2023-05-16T20:22:54.506Z,92754.06
2023-05-16T20:25:22.224Z,92741.19
2023-05-16T20:27:49.770Z,92740.25
2023-05-16T20:30:17.087Z,92719.53
2023-05-16T20:32:44.969Z,92721.41
2023-05-16T20:35:12.614Z,92731.50
2023-05-16T20:37:41.442Z,92739.59
2023-05-16T20:40:09.881Z,92741.38
2023-05-16T20:42:37.318Z,92746.88
2023-05-16T20:45:05.056Z,92737.97
2023-05-16T20:47:33.042Z,92738.34
2023-05-16T20:50:00.438Z,92743.03
2023-05-16T20:52:28.194Z,92737.00
2023-05-16T20:54:58.320Z,92731.16
2023-05-16T20:57:25.796Z,92722.41
2023-05-16T20:59:53.379Z,92722.69
2023-05-16T21:02:21.193Z,92729.28
2023-05-16T21:04:48.641Z,92725.69
2023-05-16T21:07:16.241Z,92725.97
2023-05-16T21:09:44.243Z,92723.31
2023-05-16T21:12:11.804Z,92717.50
2023-05-16T21:14:39.197Z,92719.88
2023-05-16T21:17:06.852Z,92720.72
2023-05-16T21:19:35.619Z,92717.66
2023-05-16T21:22:04.301Z,92703.44
2023-05-16T21:24:35.808Z,92708.16
2023-05-16T21:27:04.207Z,92714.22
2023-05-16T21:29:32.194Z,92728.94
2023-05-16T21:31:59.558Z,92723.16
2023-05-16T21:34:27.007Z,92728.38
2023-05-16T21:36:54.738Z,92728.41
2023-05-16T21:39:22.030Z,92736.47
2023-05-16T21:41:49.363Z,92752.09
2023-05-16T21:44:18.652Z,92755.66
2023-05-16T21:46:46.023Z,92750.69
2023-05-16T21:49:13.348Z,92749.47
2023-05-16T21:51:41.289Z,92755.28
2023-05-16T21:54:08.677Z,92749.53
2023-05-16T21:56:36.097Z,92748.50
2023-05-16T21:59:03.938Z,92754.78
2023-05-16T22:01:31.494Z,92759.78
2023-05-16T22:03:59.291Z,92755.34
2023-05-16T22:06:26.853Z,92758.78
2023-05-16T22:08:55.196Z,92780.09
2023-05-16T22:11:22.885Z,92773.78
2023-05-16T22:13:50.812Z,92765.94
2023-05-16T22:16:18.868Z,92761.19
2023-05-16T22:18:46.751Z,92749.03
2023-05-16T22:21:16.339Z,92757.72
2023-05-16T22:23:43.735Z,92755.34
2023-05-16T22:26:11.538Z,92759.03
2023-05-16T22:28:38.810Z,92760.59
2023-05-16T22:31:06.158Z,92768.50
2023-05-16T22:33:34.099Z,92770.63
2023-05-16T22:36:03.393Z,92776.91
2023-05-16T22:38:31.971Z,92776.16
2023-05-16T22:40:59.680Z,92777.50
2023-05-16T22:43:27.023Z,92776.75
2023-05-16T22:45:54.543Z,92773.81
2023-05-16T22:48:22.250Z,92771.72
2023-05-16T22:50:49.779Z,92767.00
2023-05-16T22:53:17.179Z,92766.44
2023-05-16T22:55:44.958Z,92771.50
2023-05-16T22:58:12.639Z,92767.59
2023-05-16T23:00:40.091Z,92763.03
2023-05-16T23:03:08.000Z,92763.50
2023-05-16T23:05:36.000Z,92761.16
2023-05-16T23:08:04.544Z,92758.44
2023-05-16T23:10:32.648Z,92757.88
2023-05-16T23:13:00.075Z,92747.38
2023-05-16T23:15:27.630Z,92739.25
2023-05-16T23:17:56.520Z,92742.88
2023-05-16T23:20:24.647Z,92743.13
2023-05-16T23:22:52.025Z,92749.47
2023-05-16T23:25:19.869Z,92736.25
2023-05-16T23:27:47.264Z,92738.78
2023-05-16T23:30:15.413Z,92744.81
2023-05-16T23:32:43.247Z,92743.22
2023-05-16T23:35:10.879Z,92741.84
2023-05-16T23:37:39.510Z,92752.25
2023-05-16T23:40:07.957Z,92753.75
2023-05-16T23:42:37.041Z,92758.19
2023-05-16T23:45:05.043Z,92759.03
2023-05-16T23:47:32.771Z,92768.22
2023-05-16T23:50:00.267Z,92767.50
2023-05-16T23:52:27.699Z,92761.69
2023-05-16T23:54:55.453Z,92766.41
2023-05-16T23:57:22.812Z,92764.31
2023-05-16T23:59:50.109Z,92763.22
